sensor_id;sensor_type;location;lat;lon;timestamp;P1;durP1;ratioP1;P2;durP2;ratioP2
10687;SDS011;5392;42.688;23.298;2023-03-23T00:00:58;59.03;;;39.42;;
10687;SDS011;5392;42.688;23.298;2023-03-23T00:03:24;60.78;;;38.33;;
10687;SDS011;5392;42.688;23.298;2023-03-23T00:05:51;59.95;;;36.78;;
10687;SDS011;5392;42.688;23.298;2023-03-23T00:08:20;62.30;;;37.35;;
10687;SDS011;5392;42.688;23.298;2023-03-23T00:10:49;62.10;;;37.92;;
10687;SDS011;5392;42.688;23.298;2023-03-23T00:13:18;59.50;;;37.30;;
10687;SDS011;5392;42.688;23.298;2023-03-23T00:15:46;61.33;;;38.28;;
10687;SDS011;5392;42.688;23.298;2023-03-23T00:18:14;67.43;;;41.15;;
10687;SDS011;5392;42.688;23.298;2023-03-23T00:20:50;58.58;;;38.67;;
10687;SDS011;5392;42.688;23.298;2023-03-23T00:23:17;59.97;;;37.60;;
10687;SDS011;5392;42.688;23.298;2023-03-23T00:25:45;56.75;;;35.90;;
10687;SDS011;5392;42.688;23.298;2023-03-23T00:28:11;54.92;;;33.67;;
10687;SDS011;5392;42.688;23.298;2023-03-23T00:30:38;51.33;;;34.05;;
10687;SDS011;5392;42.688;23.298;2023-03-23T00:33:04;52.78;;;33.08;;
10687;SDS011;5392;42.688;23.298;2023-03-23T00:35:30;52.05;;;32.47;;
10687;SDS011;5392;42.688;23.298;2023-03-23T00:37:56;48.78;;;32.53;;
10687;SDS011;5392;42.688;23.298;2023-03-23T00:40:23;51.15;;;32.67;;
10687;SDS011;5392;42.688;23.298;2023-03-23T00:42:49;52.60;;;34.40;;
10687;SDS011;5392;42.688;23.298;2023-03-23T00:45:15;68.35;;;40.60;;
10687;SDS011;5392;42.688;23.298;2023-03-23T00:47:41;70.35;;;45.38;;
10687;SDS011;5392;42.688;23.298;2023-03-23T00:50:11;85.95;;;49.58;;
10687;SDS011;5392;42.688;23.298;2023-03-23T00:52:39;84.13;;;51.00;;
10687;SDS011;5392;42.688;23.298;2023-03-23T00:55:06;81.95;;;52.10;;
10687;SDS011;5392;42.688;23.298;2023-03-23T00:57:32;85.90;;;49.55;;
10687;SDS011;5392;42.688;23.298;2023-03-23T00:59:57;79.18;;;47.80;;
10687;SDS011;5392;42.688;23.298;2023-03-23T01:02:23;72.47;;;44.20;;
10687;SDS011;5392;42.688;23.298;2023-03-23T01:04:50;82.75;;;49.40;;
10687;SDS011;5392;42.688;23.298;2023-03-23T01:07:20;90.38;;;55.20;;
10687;SDS011;5392;42.688;23.298;2023-03-23T01:09:48;92.15;;;54.30;;
10687;SDS011;5392;42.688;23.298;2023-03-23T01:12:14;101.70;;;57.63;;
10687;SDS011;5392;42.688;23.298;2023-03-23T01:14:40;95.22;;;56.85;;
10687;SDS011;5392;42.688;23.298;2023-03-23T01:17:07;128.95;;;66.60;;
10687;SDS011;5392;42.688;23.298;2023-03-23T01:19:32;127.43;;;66.75;;
10687;SDS011;5392;42.688;23.298;2023-03-23T01:21:58;123.65;;;64.03;;
10687;SDS011;5392;42.688;23.298;2023-03-23T01:24:24;117.00;;;63.65;;
10687;SDS011;5392;42.688;23.298;2023-03-23T01:26:49;119.13;;;64.38;;
10687;SDS011;5392;42.688;23.298;2023-03-23T01:29:15;123.93;;;63.35;;
10687;SDS011;5392;42.688;23.298;2023-03-23T01:31:40;112.90;;;59.63;;
10687;SDS011;5392;42.688;23.298;2023-03-23T01:34:07;104.10;;;57.03;;
10687;SDS011;5392;42.688;23.298;2023-03-23T01:36:35;106.53;;;55.92;;
10687;SDS011;5392;42.688;23.298;2023-03-23T01:39:02;98.63;;;52.83;;
10687;SDS011;5392;42.688;23.298;2023-03-23T01:41:29;92.93;;;51.35;;
10687;SDS011;5392;42.688;23.298;2023-03-23T01:44:01;97.65;;;51.95;;
10687;SDS011;5392;42.688;23.298;2023-03-23T01:46:31;93.70;;;50.92;;
10687;SDS011;5392;42.688;23.298;2023-03-23T01:48:59;89.53;;;50.63;;
10687;SDS011;5392;42.688;23.298;2023-03-23T01:51:33;89.05;;;50.75;;
10687;SDS011;5392;42.688;23.298;2023-03-23T01:54:04;89.10;;;49.88;;
10687;SDS011;5392;42.688;23.298;2023-03-23T01:56:35;87.88;;;49.28;;
10687;SDS011;5392;42.688;23.298;2023-03-23T01:59:07;84.50;;;48.72;;
10687;SDS011;5392;42.688;23.298;2023-03-23T02:01:34;89.63;;;49.13;;
10687;SDS011;5392;42.688;23.298;2023-03-23T02:04:03;86.57;;;49.13;;
10687;SDS011;5392;42.688;23.298;2023-03-23T02:06:30;88.88;;;48.33;;
10687;SDS011;5392;42.688;23.298;2023-03-23T02:08:56;85.47;;;48.10;;
10687;SDS011;5392;42.688;23.298;2023-03-23T02:11:22;89.28;;;48.15;;
10687;SDS011;5392;42.688;23.298;2023-03-23T02:13:48;81.32;;;46.08;;
10687;SDS011;5392;42.688;23.298;2023-03-23T02:27:14;66.45;;;40.45;;
10687;SDS011;5392;42.688;23.298;2023-03-23T02:35:34;50.75;;;32.85;;
10687;SDS011;5392;42.688;23.298;2023-03-23T02:38:08;45.40;;;30.92;;
10687;SDS011;5392;42.688;23.298;2023-03-23T02:40:41;52.25;;;32.22;;
10687;SDS011;5392;42.688;23.298;2023-03-23T02:43:12;42.88;;;28.17;;
10687;SDS011;5392;42.688;23.298;2023-03-23T02:45:40;40.92;;;26.35;;
10687;SDS011;5392;42.688;23.298;2023-03-23T02:48:09;40.08;;;26.70;;
10687;SDS011;5392;42.688;23.298;2023-03-23T02:50:37;44.70;;;28.42;;
10687;SDS011;5392;42.688;23.298;2023-03-23T02:53:07;50.33;;;30.88;;
10687;SDS011;5392;42.688;23.298;2023-03-23T02:55:36;54.80;;;33.40;;
10687;SDS011;5392;42.688;23.298;2023-03-23T02:58:07;51.03;;;30.63;;
10687;SDS011;5392;42.688;23.298;2023-03-23T03:00:34;35.70;;;25.55;;
10687;SDS011;5392;42.688;23.298;2023-03-23T03:02:59;57.80;;;36.42;;
10687;SDS011;5392;42.688;23.298;2023-03-23T03:08:13;61.25;;;37.42;;
10687;SDS011;5392;42.688;23.298;2023-03-23T03:10:54;59.58;;;39.22;;
10687;SDS011;5392;42.688;23.298;2023-03-23T03:21:29;58.97;;;36.35;;
10687;SDS011;5392;42.688;23.298;2023-03-23T03:23:58;62.42;;;38.22;;
10687;SDS011;5392;42.688;23.298;2023-03-23T03:26:27;68.30;;;40.00;;
10687;SDS011;5392;42.688;23.298;2023-03-23T03:28:56;61.90;;;38.28;;
10687;SDS011;5392;42.688;23.298;2023-03-23T03:31:23;63.95;;;37.22;;
10687;SDS011;5392;42.688;23.298;2023-03-23T03:33:53;46.50;;;27.48;;
10687;SDS011;5392;42.688;23.298;2023-03-23T03:36:24;51.58;;;32.33;;
10687;SDS011;5392;42.688;23.298;2023-03-23T03:38:52;60.17;;;36.08;;
10687;SDS011;5392;42.688;23.298;2023-03-23T03:41:18;53.75;;;32.53;;
10687;SDS011;5392;42.688;23.298;2023-03-23T03:43:44;52.60;;;31.42;;
10687;SDS011;5392;42.688;23.298;2023-03-23T03:46:10;45.10;;;29.42;;
10687;SDS011;5392;42.688;23.298;2023-03-23T03:48:36;42.58;;;27.30;;
10687;SDS011;5392;42.688;23.298;2023-03-23T03:51:01;42.05;;;27.45;;
10687;SDS011;5392;42.688;23.298;2023-03-23T03:53:27;45.55;;;27.73;;
10687;SDS011;5392;42.688;23.298;2023-03-23T03:55:53;35.85;;;25.00;;
10687;SDS011;5392;42.688;23.298;2023-03-23T03:58:22;43.00;;;28.20;;
10687;SDS011;5392;42.688;23.298;2023-03-23T04:00:48;42.22;;;26.75;;
10687;SDS011;5392;42.688;23.298;2023-03-23T04:03:14;47.70;;;30.42;;
10687;SDS011;5392;42.688;23.298;2023-03-23T04:05:41;48.85;;;30.92;;
10687;SDS011;5392;42.688;23.298;2023-03-23T04:08:10;45.63;;;30.23;;
10687;SDS011;5392;42.688;23.298;2023-03-23T04:10:36;49.78;;;31.60;;
10687;SDS011;5392;42.688;23.298;2023-03-23T04:13:02;51.15;;;30.50;;
10687;SDS011;5392;42.688;23.298;2023-03-23T04:15:29;52.83;;;32.00;;
10687;SDS011;5392;42.688;23.298;2023-03-23T04:17:55;49.45;;;29.10;;
10687;SDS011;5392;42.688;23.298;2023-03-23T04:20:22;46.40;;;29.33;;
10687;SDS011;5392;42.688;23.298;2023-03-23T04:22:48;54.70;;;31.42;;
10687;SDS011;5392;42.688;23.298;2023-03-23T04:25:15;54.55;;;31.38;;
10687;SDS011;5392;42.688;23.298;2023-03-23T04:27:46;47.45;;;30.42;;
10687;SDS011;5392;42.688;23.298;2023-03-23T04:30:18;49.17;;;31.05;;
10687;SDS011;5392;42.688;23.298;2023-03-23T04:32:46;43.88;;;29.05;;
10687;SDS011;5392;42.688;23.298;2023-03-23T04:35:15;46.72;;;29.73;;
10687;SDS011;5392;42.688;23.298;2023-03-23T04:37:42;54.53;;;33.97;;
10687;SDS011;5392;42.688;23.298;2023-03-23T04:40:09;56.30;;;35.85;;
10687;SDS011;5392;42.688;23.298;2023-03-23T04:42:38;58.95;;;37.65;;
10687;SDS011;5392;42.688;23.298;2023-03-23T04:45:05;64.88;;;41.83;;
10687;SDS011;5392;42.688;23.298;2023-03-23T04:47:33;68.35;;;40.53;;
10687;SDS011;5392;42.688;23.298;2023-03-23T04:50:14;71.45;;;44.97;;
10687;SDS011;5392;42.688;23.298;2023-03-23T04:52:39;71.05;;;42.92;;
10687;SDS011;5392;42.688;23.298;2023-03-23T04:55:10;64.85;;;39.30;;
10687;SDS011;5392;42.688;23.298;2023-03-23T04:57:37;55.58;;;35.63;;
10687;SDS011;5392;42.688;23.298;2023-03-23T05:00:03;58.65;;;38.17;;
10687;SDS011;5392;42.688;23.298;2023-03-23T05:02:34;60.45;;;38.70;;
10687;SDS011;5392;42.688;23.298;2023-03-23T05:05:05;66.05;;;40.72;;
10687;SDS011;5392;42.688;23.298;2023-03-23T05:07:31;64.55;;;40.08;;
10687;SDS011;5392;42.688;23.298;2023-03-23T05:09:57;68.05;;;42.15;;
10687;SDS011;5392;42.688;23.298;2023-03-23T05:12:22;63.42;;;39.72;;
10687;SDS011;5392;42.688;23.298;2023-03-23T05:14:48;67.05;;;42.30;;
10687;SDS011;5392;42.688;23.298;2023-03-23T05:17:14;65.03;;;41.22;;
10687;SDS011;5392;42.688;23.298;2023-03-23T05:19:44;66.05;;;42.85;;
10687;SDS011;5392;42.688;23.298;2023-03-23T05:22:15;70.25;;;44.85;;
10687;SDS011;5392;42.688;23.298;2023-03-23T05:24:41;71.75;;;45.63;;
10687;SDS011;5392;42.688;23.298;2023-03-23T05:27:09;69.70;;;43.70;;
10687;SDS011;5392;42.688;23.298;2023-03-23T05:29:35;64.85;;;40.15;;
10687;SDS011;5392;42.688;23.298;2023-03-23T05:32:02;68.72;;;42.28;;
10687;SDS011;5392;42.688;23.298;2023-03-23T05:34:32;64.38;;;41.53;;
10687;SDS011;5392;42.688;23.298;2023-03-23T05:36:59;57.63;;;38.00;;
10687;SDS011;5392;42.688;23.298;2023-03-23T05:39:30;57.05;;;39.65;;
10687;SDS011;5392;42.688;23.298;2023-03-23T05:41:56;57.42;;;38.58;;
10687;SDS011;5392;42.688;23.298;2023-03-23T05:44:21;53.58;;;37.45;;
10687;SDS011;5392;42.688;23.298;2023-03-23T05:46:47;56.42;;;36.30;;
10687;SDS011;5392;42.688;23.298;2023-03-23T05:49:14;63.00;;;39.97;;
10687;SDS011;5392;42.688;23.298;2023-03-23T05:51:44;54.42;;;36.13;;
10687;SDS011;5392;42.688;23.298;2023-03-23T05:54:14;41.55;;;30.23;;
10687;SDS011;5392;42.688;23.298;2023-03-23T05:56:40;50.83;;;31.45;;
10687;SDS011;5392;42.688;23.298;2023-03-23T05:59:06;50.30;;;30.27;;
10687;SDS011;5392;42.688;23.298;2023-03-23T06:01:32;34.20;;;25.20;;
10687;SDS011;5392;42.688;23.298;2023-03-23T06:03:58;40.67;;;27.05;;
10687;SDS011;5392;42.688;23.298;2023-03-23T06:06:27;38.50;;;30.00;;
10687;SDS011;5392;42.688;23.298;2023-03-23T06:08:55;44.00;;;31.98;;
10687;SDS011;5392;42.688;23.298;2023-03-23T06:11:21;47.10;;;35.33;;
10687;SDS011;5392;42.688;23.298;2023-03-23T06:13:46;55.05;;;36.67;;
10687;SDS011;5392;42.688;23.298;2023-03-23T06:16:12;54.88;;;37.38;;
10687;SDS011;5392;42.688;23.298;2023-03-23T06:18:39;58.13;;;37.70;;
10687;SDS011;5392;42.688;23.298;2023-03-23T06:21:08;56.85;;;35.95;;
10687;SDS011;5392;42.688;23.298;2023-03-23T06:23:35;54.53;;;35.15;;
10687;SDS011;5392;42.688;23.298;2023-03-23T06:26:05;51.08;;;34.20;;
10687;SDS011;5392;42.688;23.298;2023-03-23T06:28:32;60.80;;;35.30;;
10687;SDS011;5392;42.688;23.298;2023-03-23T06:30:59;41.25;;;31.52;;
10687;SDS011;5392;42.688;23.298;2023-03-23T06:33:31;46.65;;;30.70;;
10687;SDS011;5392;42.688;23.298;2023-03-23T06:35:59;42.58;;;30.27;;
10687;SDS011;5392;42.688;23.298;2023-03-23T06:38:25;48.60;;;29.95;;
10687;SDS011;5392;42.688;23.298;2023-03-23T06:40:52;44.25;;;29.33;;
10687;SDS011;5392;42.688;23.298;2023-03-23T06:43:17;43.83;;;29.30;;
10687;SDS011;5392;42.688;23.298;2023-03-23T06:45:43;40.97;;;26.70;;
10687;SDS011;5392;42.688;23.298;2023-03-23T06:48:09;31.98;;;25.20;;
10687;SDS011;5392;42.688;23.298;2023-03-23T06:50:34;30.35;;;25.10;;
10687;SDS011;5392;42.688;23.298;2023-03-23T06:53:00;39.83;;;26.73;;
10687;SDS011;5392;42.688;23.298;2023-03-23T06:55:25;31.83;;;23.85;;
10687;SDS011;5392;42.688;23.298;2023-03-23T06:57:51;27.17;;;22.17;;
10687;SDS011;5392;42.688;23.298;2023-03-23T07:00:16;29.75;;;19.00;;
10687;SDS011;5392;42.688;23.298;2023-03-23T07:02:42;26.30;;;16.70;;
10687;SDS011;5392;42.688;23.298;2023-03-23T07:05:09;35.28;;;18.30;;
10687;SDS011;5392;42.688;23.298;2023-03-23T07:07:36;24.40;;;18.42;;
10687;SDS011;5392;42.688;23.298;2023-03-23T07:10:03;22.30;;;19.35;;
10687;SDS011;5392;42.688;23.298;2023-03-23T07:12:31;25.48;;;19.13;;
10687;SDS011;5392;42.688;23.298;2023-03-23T07:14:56;23.50;;;18.42;;
10687;SDS011;5392;42.688;23.298;2023-03-23T07:17:22;25.67;;;19.25;;
10687;SDS011;5392;42.688;23.298;2023-03-23T07:19:48;20.90;;;17.55;;
10687;SDS011;5392;42.688;23.298;2023-03-23T07:22:13;27.73;;;20.70;;
10687;SDS011;5392;42.688;23.298;2023-03-23T07:24:39;30.88;;;20.85;;
10687;SDS011;5392;42.688;23.298;2023-03-23T07:27:04;28.00;;;20.85;;
10687;SDS011;5392;42.688;23.298;2023-03-23T07:29:30;22.77;;;20.00;;
10687;SDS011;5392;42.688;23.298;2023-03-23T07:32:00;24.48;;;20.85;;
10687;SDS011;5392;42.688;23.298;2023-03-23T07:34:26;30.58;;;22.05;;
10687;SDS011;5392;42.688;23.298;2023-03-23T07:36:52;25.83;;;21.75;;
10687;SDS011;5392;42.688;23.298;2023-03-23T07:39:17;30.80;;;21.80;;
10687;SDS011;5392;42.688;23.298;2023-03-23T07:41:43;31.27;;;22.17;;
10687;SDS011;5392;42.688;23.298;2023-03-23T07:44:08;38.03;;;23.63;;
10687;SDS011;5392;42.688;23.298;2023-03-23T07:46:34;27.35;;;21.77;;
10687;SDS011;5392;42.688;23.298;2023-03-23T07:49:01;32.70;;;21.73;;
10687;SDS011;5392;42.688;23.298;2023-03-23T07:51:30;25.70;;;21.60;;
10687;SDS011;5392;42.688;23.298;2023-03-23T07:53:57;29.75;;;23.95;;
10687;SDS011;5392;42.688;23.298;2023-03-23T07:56:23;36.40;;;23.30;;
10687;SDS011;5392;42.688;23.298;2023-03-23T07:58:49;37.92;;;24.10;;
10687;SDS011;5392;42.688;23.298;2023-03-23T08:01:14;24.52;;;21.67;;
10687;SDS011;5392;42.688;23.298;2023-03-23T08:03:40;28.92;;;21.27;;
10687;SDS011;5392;42.688;23.298;2023-03-23T08:06:07;25.98;;;18.85;;
10687;SDS011;5392;42.688;23.298;2023-03-23T08:08:33;23.02;;;18.48;;
10687;SDS011;5392;42.688;23.298;2023-03-23T08:11:00;19.33;;;17.42;;
10687;SDS011;5392;42.688;23.298;2023-03-23T08:13:26;17.08;;;15.20;;
10687;SDS011;5392;42.688;23.298;2023-03-23T08:15:52;19.67;;;17.33;;
10687;SDS011;5392;42.688;23.298;2023-03-23T08:18:17;21.58;;;18.92;;
10687;SDS011;5392;42.688;23.298;2023-03-23T08:20:43;30.67;;;19.35;;
10687;SDS011;5392;42.688;23.298;2023-03-23T08:23:13;21.23;;;14.20;;
10687;SDS011;5392;42.688;23.298;2023-03-23T08:25:41;16.15;;;14.55;;
10687;SDS011;5392;42.688;23.298;2023-03-23T08:28:07;14.45;;;13.15;;
10687;SDS011;5392;42.688;23.298;2023-03-23T08:30:34;24.33;;;16.10;;
10687;SDS011;5392;42.688;23.298;2023-03-23T08:33:01;20.60;;;15.88;;
10687;SDS011;5392;42.688;23.298;2023-03-23T08:35:27;17.02;;;15.38;;
10687;SDS011;5392;42.688;23.298;2023-03-23T08:37:53;16.85;;;13.38;;
10687;SDS011;5392;42.688;23.298;2023-03-23T08:40:21;14.93;;;13.43;;
10687;SDS011;5392;42.688;23.298;2023-03-23T08:42:48;14.57;;;13.13;;
10687;SDS011;5392;42.688;23.298;2023-03-23T08:45:17;15.27;;;13.68;;
10687;SDS011;5392;42.688;23.298;2023-03-23T08:47:44;20.80;;;13.55;;
10687;SDS011;5392;42.688;23.298;2023-03-23T08:50:13;14.65;;;10.82;;
10687;SDS011;5392;42.688;23.298;2023-03-23T08:52:40;8.15;;;6.95;;
10687;SDS011;5392;42.688;23.298;2023-03-23T08:55:07;6.97;;;6.38;;
10687;SDS011;5392;42.688;23.298;2023-03-23T08:57:34;18.20;;;7.35;;
10687;SDS011;5392;42.688;23.298;2023-03-23T09:00:02;9.20;;;8.40;;
10687;SDS011;5392;42.688;23.298;2023-03-23T09:02:39;9.27;;;8.30;;
10687;SDS011;5392;42.688;23.298;2023-03-23T09:05:05;3.72;;;3.53;;
10687;SDS011;5392;42.688;23.298;2023-03-23T09:07:32;4.60;;;4.18;;
10687;SDS011;5392;42.688;23.298;2023-03-23T09:09:57;4.50;;;4.20;;
10687;SDS011;5392;42.688;23.298;2023-03-23T09:12:23;6.88;;;5.32;;
10687;SDS011;5392;42.688;23.298;2023-03-23T09:14:48;7.07;;;6.50;;
10687;SDS011;5392;42.688;23.298;2023-03-23T09:17:14;10.10;;;7.00;;
10687;SDS011;5392;42.688;23.298;2023-03-23T09:19:40;8.65;;;6.72;;
10687;SDS011;5392;42.688;23.298;2023-03-23T09:22:06;6.40;;;5.78;;
10687;SDS011;5392;42.688;23.298;2023-03-23T09:24:33;5.00;;;4.60;;
10687;SDS011;5392;42.688;23.298;2023-03-23T09:27:01;5.25;;;4.90;;
10687;SDS011;5392;42.688;23.298;2023-03-23T09:29:27;6.32;;;5.70;;
10687;SDS011;5392;42.688;23.298;2023-03-23T09:31:53;4.90;;;4.60;;
10687;SDS011;5392;42.688;23.298;2023-03-23T09:34:19;5.35;;;4.90;;
10687;SDS011;5392;42.688;23.298;2023-03-23T09:36:44;7.28;;;4.85;;
10687;SDS011;5392;42.688;23.298;2023-03-23T09:39:10;4.43;;;4.18;;
10687;SDS011;5392;42.688;23.298;2023-03-23T09:42:27;2.78;;;2.08;;
10687;SDS011;5392;42.688;23.298;2023-03-23T09:47:03;6.55;;;4.13;;
10687;SDS011;5392;42.688;23.298;2023-03-23T09:49:53;3.10;;;3.00;;
10687;SDS011;5392;42.688;23.298;2023-03-23T09:52:22;4.05;;;3.85;;
10687;SDS011;5392;42.688;23.298;2023-03-23T09:55:02;5.22;;;4.93;;
10687;SDS011;5392;42.688;23.298;2023-03-23T10:00:19;6.55;;;5.82;;
10687;SDS011;5392;42.688;23.298;2023-03-23T10:03:05;8.50;;;6.25;;
10687;SDS011;5392;42.688;23.298;2023-03-23T10:08:25;10.18;;;6.28;;
10687;SDS011;5392;42.688;23.298;2023-03-23T10:22:49;5.32;;;4.82;;
10687;SDS011;5392;42.688;23.298;2023-03-23T10:25:34;8.18;;;5.43;;
10687;SDS011;5392;42.688;23.298;2023-03-23T10:28:08;4.25;;;3.90;;
10687;SDS011;5392;42.688;23.298;2023-03-23T10:30:41;3.95;;;3.75;;
10687;SDS011;5392;42.688;23.298;2023-03-23T10:36:03;5.38;;;4.80;;
10687;SDS011;5392;42.688;23.298;2023-03-23T10:41:15;4.82;;;4.50;;
10687;SDS011;5392;42.688;23.298;2023-03-23T10:43:43;4.72;;;4.38;;
10687;SDS011;5392;42.688;23.298;2023-03-23T10:48:55;4.50;;;4.30;;
10687;SDS011;5392;42.688;23.298;2023-03-23T10:51:25;4.68;;;4.28;;
10687;SDS011;5392;42.688;23.298;2023-03-23T10:53:57;9.73;;;5.47;;
10687;SDS011;5392;42.688;23.298;2023-03-23T10:56:26;5.40;;;4.93;;
10687;SDS011;5392;42.688;23.298;2023-03-23T10:58:53;3.83;;;3.55;;
10687;SDS011;5392;42.688;23.298;2023-03-23T11:01:27;4.25;;;3.97;;
10687;SDS011;5392;42.688;23.298;2023-03-23T11:03:55;4.53;;;4.13;;
10687;SDS011;5392;42.688;23.298;2023-03-23T11:06:25;5.10;;;4.80;;
10687;SDS011;5392;42.688;23.298;2023-03-23T11:09:10;4.28;;;3.97;;
10687;SDS011;5392;42.688;23.298;2023-03-23T11:11:39;4.35;;;3.95;;
10687;SDS011;5392;42.688;23.298;2023-03-23T11:14:16;4.38;;;4.07;;
10687;SDS011;5392;42.688;23.298;2023-03-23T11:16:51;5.60;;;4.43;;
10687;SDS011;5392;42.688;23.298;2023-03-23T11:19:27;5.45;;;5.05;;
10687;SDS011;5392;42.688;23.298;2023-03-23T11:24:32;4.93;;;4.63;;
10687;SDS011;5392;42.688;23.298;2023-03-23T11:26:59;3.47;;;3.28;;
10687;SDS011;5392;42.688;23.298;2023-03-23T11:29:28;4.32;;;4.05;;
10687;SDS011;5392;42.688;23.298;2023-03-23T11:34:25;4.70;;;4.30;;
10687;SDS011;5392;42.688;23.298;2023-03-23T11:37:00;4.07;;;3.75;;
10687;SDS011;5392;42.688;23.298;2023-03-23T11:39:30;4.63;;;4.43;;
10687;SDS011;5392;42.688;23.298;2023-03-23T11:42:02;4.45;;;3.97;;
10687;SDS011;5392;42.688;23.298;2023-03-23T11:44:47;4.15;;;3.95;;
10687;SDS011;5392;42.688;23.298;2023-03-23T11:50:04;3.80;;;3.50;;
10687;SDS011;5392;42.688;23.298;2023-03-23T11:58:53;4.90;;;4.50;;
10687;SDS011;5392;42.688;23.298;2023-03-23T12:07:35;3.88;;;3.58;;
10687;SDS011;5392;42.688;23.298;2023-03-23T12:12:59;5.47;;;4.97;;
10687;SDS011;5392;42.688;23.298;2023-03-23T12:27:14;2.90;;;2.72;;
10687;SDS011;5392;42.688;23.298;2023-03-23T12:30:04;3.13;;;3.00;;
10687;SDS011;5392;42.688;23.298;2023-03-23T12:32:58;4.47;;;4.03;;
10687;SDS011;5392;42.688;23.298;2023-03-23T12:49:17;4.90;;;4.22;;
10687;SDS011;5392;42.688;23.298;2023-03-23T12:51:58;4.50;;;4.05;;
10687;SDS011;5392;42.688;23.298;2023-03-23T13:03:10;2.35;;;2.25;;
10687;SDS011;5392;42.688;23.298;2023-03-23T13:05:57;3.00;;;2.80;;
10687;SDS011;5392;42.688;23.298;2023-03-23T13:08:34;3.10;;;3.00;;
10687;SDS011;5392;42.688;23.298;2023-03-23T13:11:04;3.42;;;3.15;;
10687;SDS011;5392;42.688;23.298;2023-03-23T13:13:51;2.85;;;2.75;;
10687;SDS011;5392;42.688;23.298;2023-03-23T13:19:17;2.60;;;2.53;;
10687;SDS011;5392;42.688;23.298;2023-03-23T13:24:32;2.60;;;2.50;;
10687;SDS011;5392;42.688;23.298;2023-03-23T13:27:01;1.73;;;1.73;;
10687;SDS011;5392;42.688;23.298;2023-03-23T13:29:27;1.98;;;1.98;;
10687;SDS011;5392;42.688;23.298;2023-03-23T13:32:09;3.33;;;1.95;;
10687;SDS011;5392;42.688;23.298;2023-03-23T13:34:38;2.50;;;2.40;;
10687;SDS011;5392;42.688;23.298;2023-03-23T13:37:08;3.33;;;3.00;;
10687;SDS011;5392;42.688;23.298;2023-03-23T13:39:38;3.45;;;3.15;;
10687;SDS011;5392;42.688;23.298;2023-03-23T13:44:44;2.35;;;2.35;;
10687;SDS011;5392;42.688;23.298;2023-03-23T13:47:40;3.15;;;3.05;;
10687;SDS011;5392;42.688;23.298;2023-03-23T13:52:46;2.90;;;2.70;;
10687;SDS011;5392;42.688;23.298;2023-03-23T14:05:39;5.95;;;2.53;;
10687;SDS011;5392;42.688;23.298;2023-03-23T14:08:14;2.38;;;2.28;;
10687;SDS011;5392;42.688;23.298;2023-03-23T14:10:53;2.10;;;2.10;;
10687;SDS011;5392;42.688;23.298;2023-03-23T14:13:42;2.95;;;2.78;;
10687;SDS011;5392;42.688;23.298;2023-03-23T14:16:23;1.85;;;1.73;;
10687;SDS011;5392;42.688;23.298;2023-03-23T14:18:54;2.65;;;2.00;;
10687;SDS011;5392;42.688;23.298;2023-03-23T14:21:25;1.80;;;1.70;;
10687;SDS011;5392;42.688;23.298;2023-03-23T14:23:59;2.65;;;2.25;;
10687;SDS011;5392;42.688;23.298;2023-03-23T14:26:28;2.95;;;2.22;;
10687;SDS011;5392;42.688;23.298;2023-03-23T14:28:54;4.85;;;2.00;;
10687;SDS011;5392;42.688;23.298;2023-03-23T14:31:22;2.50;;;2.40;;
10687;SDS011;5392;42.688;23.298;2023-03-23T14:33:50;2.78;;;2.33;;
10687;SDS011;5392;42.688;23.298;2023-03-23T14:36:25;2.22;;;2.10;;
10687;SDS011;5392;42.688;23.298;2023-03-23T14:41:47;3.35;;;3.10;;
10687;SDS011;5392;42.688;23.298;2023-03-23T14:44:17;2.53;;;1.95;;
10687;SDS011;5392;42.688;23.298;2023-03-23T14:46:47;2.47;;;2.38;;
10687;SDS011;5392;42.688;23.298;2023-03-23T14:49:15;2.47;;;2.38;;
10687;SDS011;5392;42.688;23.298;2023-03-23T14:51:51;2.90;;;2.80;;
10687;SDS011;5392;42.688;23.298;2023-03-23T14:54:22;3.08;;;2.88;;
10687;SDS011;5392;42.688;23.298;2023-03-23T14:56:53;2.28;;;2.00;;
10687;SDS011;5392;42.688;23.298;2023-03-23T14:59:19;3.20;;;2.30;;
10687;SDS011;5392;42.688;23.298;2023-03-23T15:01:46;2.88;;;2.78;;
10687;SDS011;5392;42.688;23.298;2023-03-23T15:04:15;2.15;;;2.05;;
10687;SDS011;5392;42.688;23.298;2023-03-23T15:06:44;1.85;;;1.75;;
10687;SDS011;5392;42.688;23.298;2023-03-23T15:09:22;2.20;;;2.08;;
10687;SDS011;5392;42.688;23.298;2023-03-23T15:12:11;3.05;;;2.85;;
10687;SDS011;5392;42.688;23.298;2023-03-23T15:15:36;3.85;;;2.80;;
10687;SDS011;5392;42.688;23.298;2023-03-23T15:17:52;2.55;;;2.30;;
10687;SDS011;5392;42.688;23.298;2023-03-23T15:22:47;3.53;;;2.80;;
10687;SDS011;5392;42.688;23.298;2023-03-23T15:25:29;3.38;;;2.97;;
10687;SDS011;5392;42.688;23.298;2023-03-23T15:27:57;2.83;;;2.60;;
10687;SDS011;5392;42.688;23.298;2023-03-23T15:30:33;2.58;;;2.42;;
10687;SDS011;5392;42.688;23.298;2023-03-23T15:33:11;2.42;;;2.33;;
10687;SDS011;5392;42.688;23.298;2023-03-23T15:35:39;3.03;;;2.88;;
10687;SDS011;5392;42.688;23.298;2023-03-23T15:38:29;2.88;;;2.67;;
10687;SDS011;5392;42.688;23.298;2023-03-23T15:40:58;3.05;;;2.80;;
10687;SDS011;5392;42.688;23.298;2023-03-23T15:43:32;2.90;;;2.72;;
10687;SDS011;5392;42.688;23.298;2023-03-23T15:51:12;3.40;;;3.10;;
10687;SDS011;5392;42.688;23.298;2023-03-23T15:53:39;5.18;;;3.83;;
10687;SDS011;5392;42.688;23.298;2023-03-23T15:56:06;3.58;;;3.47;;
10687;SDS011;5392;42.688;23.298;2023-03-23T15:58:35;3.85;;;3.63;;
10687;SDS011;5392;42.688;23.298;2023-03-23T16:01:06;3.55;;;3.10;;
10687;SDS011;5392;42.688;23.298;2023-03-23T16:03:43;3.10;;;3.00;;
10687;SDS011;5392;42.688;23.298;2023-03-23T16:06:20;3.65;;;3.28;;
10687;SDS011;5392;42.688;23.298;2023-03-23T16:08:51;5.40;;;3.42;;
10687;SDS011;5392;42.688;23.298;2023-03-23T16:11:22;2.83;;;2.63;;
10687;SDS011;5392;42.688;23.298;2023-03-23T16:13:50;3.58;;;3.00;;
10687;SDS011;5392;42.688;23.298;2023-03-23T16:16:22;3.55;;;3.22;;
10687;SDS011;5392;42.688;23.298;2023-03-23T16:18:52;3.08;;;2.88;;
10687;SDS011;5392;42.688;23.298;2023-03-23T16:21:19;2.85;;;2.67;;
10687;SDS011;5392;42.688;23.298;2023-03-23T16:23:47;3.78;;;3.35;;
10687;SDS011;5392;42.688;23.298;2023-03-23T16:26:14;5.35;;;3.92;;
10687;SDS011;5392;42.688;23.298;2023-03-23T16:28:41;3.80;;;3.47;;
10687;SDS011;5392;42.688;23.298;2023-03-23T16:31:09;6.20;;;3.25;;
10687;SDS011;5392;42.688;23.298;2023-03-23T16:33:36;3.08;;;2.88;;
10687;SDS011;5392;42.688;23.298;2023-03-23T16:36:03;3.55;;;3.28;;
10687;SDS011;5392;42.688;23.298;2023-03-23T16:38:31;3.28;;;2.92;;
10687;SDS011;5392;42.688;23.298;2023-03-23T16:40:57;5.43;;;3.00;;
10687;SDS011;5392;42.688;23.298;2023-03-23T16:43:24;2.92;;;2.72;;
10687;SDS011;5392;42.688;23.298;2023-03-23T16:45:53;4.38;;;3.35;;
10687;SDS011;5392;42.688;23.298;2023-03-23T16:48:22;8.50;;;3.90;;
10687;SDS011;5392;42.688;23.298;2023-03-23T16:50:50;3.28;;;3.08;;
10687;SDS011;5392;42.688;23.298;2023-03-23T16:53:17;5.03;;;3.65;;
10687;SDS011;5392;42.688;23.298;2023-03-23T16:55:45;9.02;;;4.65;;
10687;SDS011;5392;42.688;23.298;2023-03-23T16:58:16;6.97;;;3.85;;
10687;SDS011;5392;42.688;23.298;2023-03-23T17:00:45;3.35;;;3.05;;
10687;SDS011;5392;42.688;23.298;2023-03-23T17:03:14;7.72;;;3.45;;
10687;SDS011;5392;42.688;23.298;2023-03-23T17:05:42;3.88;;;3.45;;
10687;SDS011;5392;42.688;23.298;2023-03-23T17:08:10;3.92;;;3.50;;